sensor_id;sensor_type;location;lat;lon;timestamp;pressure;altitude;pressure_sealevel;temperature
67509;BMP280;54354;44.724;11.284;2023-06-24T00:01:24;101565.13;;;30.90
67509;BMP280;54354;44.724;11.284;2023-06-24T00:03:50;101560.94;;;30.89
67509;BMP280;54354;44.724;11.284;2023-06-24T00:06:19;101560.22;;;30.89
67509;BMP280;54354;44.724;11.284;2023-06-24T00:08:50;101561.81;;;30.84
67509;BMP280;54354;44.724;11.284;2023-06-24T00:11:16;101565.69;;;30.89
67509;BMP280;54354;44.724;11.284;2023-06-24T00:13:42;101553.81;;;30.86
67509;BMP280;54354;44.724;11.284;2023-06-24T00:16:08;101559.63;;;30.83
67509;BMP280;54354;44.724;11.284;2023-06-24T00:18:35;101561.44;;;30.80
67509;BMP280;54354;44.724;11.284;2023-06-24T00:21:01;101561.03;;;30.76
67509;BMP280;54354;44.724;11.284;2023-06-24T00:23:28;101551.69;;;30.72
67509;BMP280;54354;44.724;11.284;2023-06-24T00:25:56;101554.97;;;30.70
67509;BMP280;54354;44.724;11.284;2023-06-24T00:28:22;101551.84;;;30.66
67509;BMP280;54354;44.724;11.284;2023-06-24T00:30:49;101548.88;;;30.64
67509;BMP280;54354;44.724;11.284;2023-06-24T00:33:15;101545.03;;;30.59
67509;BMP280;54354;44.724;11.284;2023-06-24T00:35:43;101549.91;;;30.53
67509;BMP280;54354;44.724;11.284;2023-06-24T00:38:08;101551.38;;;30.54
67509;BMP280;54354;44.724;11.284;2023-06-24T00:40:34;101544.44;;;30.53
67509;BMP280;54354;44.724;11.284;2023-06-24T00:43:00;101543.69;;;30.53
67509;BMP280;54354;44.724;11.284;2023-06-24T00:45:27;101544.56;;;30.48
67509;BMP280;54354;44.724;11.284;2023-06-24T00:47:55;101532.38;;;30.49
67509;BMP280;54354;44.724;11.284;2023-06-24T00:50:21;101529.97;;;30.45
67509;BMP280;54354;44.724;11.284;2023-06-24T00:52:46;101542.34;;;30.46
67509;BMP280;54354;44.724;11.284;2023-06-24T00:55:14;101540.50;;;30.41
67509;BMP280;54354;44.724;11.284;2023-06-24T00:57:42;101535.75;;;30.42
67509;BMP280;54354;44.724;11.284;2023-06-24T01:00:08;101537.06;;;30.41
67509;BMP280;54354;44.724;11.284;2023-06-24T01:02:37;101531.03;;;30.42
67509;BMP280;54354;44.724;11.284;2023-06-24T01:05:04;101529.31;;;30.32
67509;BMP280;54354;44.724;11.284;2023-06-24T01:07:31;101528.16;;;30.27
67509;BMP280;54354;44.724;11.284;2023-06-24T01:09:57;101538.88;;;30.25
67509;BMP280;54354;44.724;11.284;2023-06-24T01:12:23;101539.44;;;30.23
67509;BMP280;54354;44.724;11.284;2023-06-24T01:14:48;101546.91;;;30.23
67509;BMP280;54354;44.724;11.284;2023-06-24T01:17:37;101551.69;;;30.30
67509;BMP280;54354;44.724;11.284;2023-06-24T01:25:42;101552.88;;;30.21
67509;BMP280;54354;44.724;11.284;2023-06-24T01:34:06;101562.25;;;30.13
67509;BMP280;54354;44.724;11.284;2023-06-24T01:36:38;101568.13;;;30.17
67509;BMP280;54354;44.724;11.284;2023-06-24T01:39:08;101571.84;;;30.06
67509;BMP280;54354;44.724;11.284;2023-06-24T01:41:41;101577.06;;;30.04
67509;BMP280;54354;44.724;11.284;2023-06-24T01:44:13;101586.00;;;30.05
67509;BMP280;54354;44.724;11.284;2023-06-24T01:46:42;101577.06;;;30.04
67509;BMP280;54354;44.724;11.284;2023-06-24T01:49:12;101574.47;;;29.99
67509;BMP280;54354;44.724;11.284;2023-06-24T01:51:39;101586.31;;;30.01
67509;BMP280;54354;44.724;11.284;2023-06-24T01:54:11;101590.22;;;29.92
67509;BMP280;54354;44.724;11.284;2023-06-24T01:56:37;101586.78;;;29.92
67509;BMP280;54354;44.724;11.284;2023-06-24T01:59:05;101588.38;;;29.87
67509;BMP280;54354;44.724;11.284;2023-06-24T02:01:35;101596.84;;;29.84
67509;BMP280;54354;44.724;11.284;2023-06-24T02:04:04;101589.00;;;29.80
67509;BMP280;54354;44.724;11.284;2023-06-24T02:06:32;101600.53;;;29.86
67509;BMP280;54354;44.724;11.284;2023-06-24T02:08:58;101599.94;;;29.80
67509;BMP280;54354;44.724;11.284;2023-06-24T02:11:28;101595.63;;;29.72
67509;BMP280;54354;44.724;11.284;2023-06-24T02:13:55;101601.19;;;29.79
67509;BMP280;54354;44.724;11.284;2023-06-24T02:16:22;101604.78;;;29.74
67509;BMP280;54354;44.724;11.284;2023-06-24T02:18:48;101603.28;;;29.73
67509;BMP280;54354;44.724;11.284;2023-06-24T02:21:17;101600.47;;;29.66
67509;BMP280;54354;44.724;11.284;2023-06-24T02:23:45;101599.00;;;29.65
67509;BMP280;54354;44.724;11.284;2023-06-24T02:26:12;101601.31;;;29.60
67509;BMP280;54354;44.724;11.284;2023-06-24T02:28:38;101607.50;;;29.61
67509;BMP280;54354;44.724;11.284;2023-06-24T02:31:05;101601.63;;;29.57
67509;BMP280;54354;44.724;11.284;2023-06-24T02:33:31;101615.47;;;29.59
67509;BMP280;54354;44.724;11.284;2023-06-24T02:35:57;101622.19;;;29.58
67509;BMP280;54354;44.724;11.284;2023-06-24T02:38:23;101620.94;;;29.59
67509;BMP280;54354;44.724;11.284;2023-06-24T02:40:49;101617.47;;;29.58
67509;BMP280;54354;44.724;11.284;2023-06-24T02:43:16;101621.25;;;29.55
67509;BMP280;54354;44.724;11.284;2023-06-24T02:45:42;101627.22;;;29.54
67509;BMP280;54354;44.724;11.284;2023-06-24T02:48:09;101621.13;;;29.48
67509;BMP280;54354;44.724;11.284;2023-06-24T02:50:36;101619.44;;;29.45
67509;BMP280;54354;44.724;11.284;2023-06-24T02:53:03;101627.84;;;29.47
67509;BMP280;54354;44.724;11.284;2023-06-24T02:55:33;101628.38;;;29.45
67509;BMP280;54354;44.724;11.284;2023-06-24T02:58:03;101634.44;;;29.38
67509;BMP280;54354;44.724;11.284;2023-06-24T03:00:53;101638.13;;;29.41
67509;BMP280;54354;44.724;11.284;2023-06-24T03:03:29;101643.16;;;29.37
67509;BMP280;54354;44.724;11.284;2023-06-24T03:05:56;101638.53;;;29.32
67509;BMP280;54354;44.724;11.284;2023-06-24T03:08:23;101635.38;;;29.27
67509;BMP280;54354;44.724;11.284;2023-06-24T03:10:51;101644.09;;;29.26
67509;BMP280;54354;44.724;11.284;2023-06-24T03:13:20;101646.00;;;29.31
67509;BMP280;54354;44.724;11.284;2023-06-24T03:15:51;101649.53;;;29.26
67509;BMP280;54354;44.724;11.284;2023-06-24T03:18:17;101657.31;;;29.22
67509;BMP280;54354;44.724;11.284;2023-06-24T03:20:44;101661.81;;;29.19
67509;BMP280;54354;44.724;11.284;2023-06-24T03:23:15;101667.78;;;29.18
67509;BMP280;54354;44.724;11.284;2023-06-24T03:25:42;101661.88;;;29.14
67509;BMP280;54354;44.724;11.284;2023-06-24T03:28:08;101665.34;;;29.14
67509;BMP280;54354;44.724;11.284;2023-06-24T03:30:38;101668.31;;;29.16
67509;BMP280;54354;44.724;11.284;2023-06-24T03:33:04;101668.63;;;29.13
67509;BMP280;54354;44.724;11.284;2023-06-24T03:35:31;101668.16;;;29.09
67509;BMP280;54354;44.724;11.284;2023-06-24T03:38:01;101671.63;;;29.09
67509;BMP280;54354;44.724;11.284;2023-06-24T03:40:27;101671.94;;;29.06
67509;BMP280;54354;44.724;11.284;2023-06-24T03:42:52;101681.16;;;29.03
67509;BMP280;54354;44.724;11.284;2023-06-24T03:45:18;101680.41;;;29.02
67509;BMP280;54354;44.724;11.284;2023-06-24T03:47:44;101680.94;;;29.01
67509;BMP280;54354;44.724;11.284;2023-06-24T03:50:10;101681.69;;;29.01
67509;BMP280;54354;44.724;11.284;2023-06-24T03:52:35;101685.88;;;29.02
67509;BMP280;54354;44.724;11.284;2023-06-24T03:55:01;101683.66;;;29.01
67509;BMP280;54354;44.724;11.284;2023-06-24T03:57:30;101689.13;;;29.01
67509;BMP280;54354;44.724;11.284;2023-06-24T03:59:55;101688.38;;;29.00
67509;BMP280;54354;44.724;11.284;2023-06-24T04:02:21;101689.84;;;29.01
67509;BMP280;54354;44.724;11.284;2023-06-24T04:04:47;101691.13;;;29.00
67509;BMP280;54354;44.724;11.284;2023-06-24T04:07:16;101696.25;;;29.04
67509;BMP280;54354;44.724;11.284;2023-06-24T04:09:55;101698.56;;;29.00
67509;BMP280;54354;44.724;11.284;2023-06-24T04:12:21;101707.03;;;28.96
67509;BMP280;54354;44.724;11.284;2023-06-24T04:14:47;101695.41;;;28.95
67509;BMP280;54354;44.724;11.284;2023-06-24T04:17:12;101704.81;;;28.94
67509;BMP280;54354;44.724;11.284;2023-06-24T04:19:37;101708.06;;;28.93
67509;BMP280;54354;44.724;11.284;2023-06-24T04:22:04;101712.56;;;28.90
67509;BMP280;54354;44.724;11.284;2023-06-24T04:24:30;101718.03;;;28.90
67509;BMP280;54354;44.724;11.284;2023-06-24T04:26:55;101723.47;;;28.90
67509;BMP280;54354;44.724;11.284;2023-06-24T04:29:21;101717.81;;;28.88
67509;BMP280;54354;44.724;11.284;2023-06-24T04:31:47;101723.97;;;28.89
67509;BMP280;54354;44.724;11.284;2023-06-24T04:34:13;101726.28;;;28.85
67509;BMP280;54354;44.724;11.284;2023-06-24T04:36:38;101732.69;;;28.87
67509;BMP280;54354;44.724;11.284;2023-06-24T04:39:04;101735.19;;;28.85
67509;BMP280;54354;44.724;11.284;2023-06-24T04:41:29;101722.28;;;28.86
67509;BMP280;54354;44.724;11.284;2023-06-24T04:43:57;101732.25;;;28.83
67509;BMP280;54354;44.724;11.284;2023-06-24T04:46:22;101728.06;;;28.82
67509;BMP280;54354;44.724;11.284;2023-06-24T04:48:48;101725.84;;;28.81
67509;BMP280;54354;44.724;11.284;2023-06-24T04:51:13;101717.44;;;28.79
67509;BMP280;54354;44.724;11.284;2023-06-24T04:53:39;101714.19;;;28.80
67509;BMP280;54354;44.724;11.284;2023-06-24T04:56:04;101717.16;;;28.82
67509;BMP280;54354;44.724;11.284;2023-06-24T04:58:30;101728.19;;;28.90
67509;BMP280;54354;44.724;11.284;2023-06-24T05:00:56;101730.47;;;29.05
67509;BMP280;54354;44.724;11.284;2023-06-24T05:03:21;101733.38;;;29.25
67509;BMP280;54354;44.724;11.284;2023-06-24T05:05:47;101734.00;;;29.50
67509;BMP280;54354;44.724;11.284;2023-06-24T05:08:12;101729.09;;;29.75
67509;BMP280;54354;44.724;11.284;2023-06-24T05:10:38;101731.34;;;30.03
67509;BMP280;54354;44.724;11.284;2023-06-24T05:13:03;101734.78;;;30.30
67509;BMP280;54354;44.724;11.284;2023-06-24T05:15:29;101734.94;;;30.58
67509;BMP280;54354;44.724;11.284;2023-06-24T05:17:55;101731.63;;;30.86
67509;BMP280;54354;44.724;11.284;2023-06-24T05:20:20;101739.50;;;31.11
67509;BMP280;54354;44.724;11.284;2023-06-24T05:22:46;101745.91;;;31.13
67509;BMP280;54354;44.724;11.284;2023-06-24T05:25:11;101748.38;;;31.04
67509;BMP280;54354;44.724;11.284;2023-06-24T05:27:37;101747.78;;;30.98
67509;BMP280;54354;44.724;11.284;2023-06-24T05:30:03;101752.94;;;30.88
67509;BMP280;54354;44.724;11.284;2023-06-24T05:32:29;101757.06;;;30.81
67509;BMP280;54354;44.724;11.284;2023-06-24T05:34:54;101764.16;;;30.77
67509;BMP280;54354;44.724;11.284;2023-06-24T05:37:20;101759.53;;;30.72
67509;BMP280;54354;44.724;11.284;2023-06-24T05:39:45;101767.31;;;30.68
67509;BMP280;54354;44.724;11.284;2023-06-24T05:42:11;101766.91;;;30.64
67509;BMP280;54354;44.724;11.284;2023-06-24T05:44:36;101770.19;;;30.62
67509;BMP280;54354;44.724;11.284;2023-06-24T05:47:02;101767.97;;;30.60
67509;BMP280;54354;44.724;11.284;2023-06-24T05:49:27;101768.50;;;30.59
67509;BMP280;54354;44.724;11.284;2023-06-24T05:51:53;101766.50;;;30.59
67509;BMP280;54354;44.724;11.284;2023-06-24T05:54:18;101767.75;;;30.58
67509;BMP280;54354;44.724;11.284;2023-06-24T05:56:44;101771.75;;;30.57
67509;BMP280;54354;44.724;11.284;2023-06-24T05:59:09;101774.50;;;30.57
67509;BMP280;54354;44.724;11.284;2023-06-24T06:01:35;101780.69;;;30.58
67509;BMP280;54354;44.724;11.284;2023-06-24T06:04:00;101774.69;;;30.59
67509;BMP280;54354;44.724;11.284;2023-06-24T06:06:26;101775.81;;;30.64
67509;BMP280;54354;44.724;11.284;2023-06-24T06:08:51;101781.00;;;30.68
67509;BMP280;54354;44.724;11.284;2023-06-24T06:11:17;101783.91;;;30.83
67509;BMP280;54354;44.724;11.284;2023-06-24T06:13:42;101795.22;;;31.00
67509;BMP280;54354;44.724;11.284;2023-06-24T06:16:08;101795.03;;;31.19
67509;BMP280;54354;44.724;11.284;2023-06-24T06:18:33;101791.50;;;31.52
67509;BMP280;54354;44.724;11.284;2023-06-24T06:20:59;101798.03;;;31.99
67509;BMP280;54354;44.724;11.284;2023-06-24T06:23:24;101805.59;;;32.49
67509;BMP280;54354;44.724;11.284;2023-06-24T06:25:52;101807.72;;;32.94
67509;BMP280;54354;44.724;11.284;2023-06-24T06:28:18;101802.66;;;33.29
67509;BMP280;54354;44.724;11.284;2023-06-24T06:30:43;101812.13;;;33.43
67509;BMP280;54354;44.724;11.284;2023-06-24T06:33:09;101814.88;;;33.58
67509;BMP280;54354;44.724;11.284;2023-06-24T06:35:34;101811.38;;;33.88
67509;BMP280;54354;44.724;11.284;2023-06-24T06:38:00;101804.66;;;34.22
67509;BMP280;54354;44.724;11.284;2023-06-24T06:40:26;101807.75;;;34.58
67509;BMP280;54354;44.724;11.284;2023-06-24T06:42:54;101802.56;;;34.95
67509;BMP280;54354;44.724;11.284;2023-06-24T06:45:19;101797.31;;;35.31
67509;BMP280;54354;44.724;11.284;2023-06-24T06:47:45;101793.81;;;35.65
67509;BMP280;54354;44.724;11.284;2023-06-24T06:50:10;101794.22;;;35.96
67509;BMP280;54354;44.724;11.284;2023-06-24T06:52:36;101795.84;;;36.26
67509;BMP280;54354;44.724;11.284;2023-06-24T06:55:01;101793.75;;;36.44
67509;BMP280;54354;44.724;11.284;2023-06-24T06:57:27;101791.13;;;36.46
67509;BMP280;54354;44.724;11.284;2023-06-24T06:59:53;101793.28;;;36.38
67509;BMP280;54354;44.724;11.284;2023-06-24T07:02:18;101788.94;;;36.44
67509;BMP280;54354;44.724;11.284;2023-06-24T07:04:44;101798.34;;;36.68
67509;BMP280;54354;44.724;11.284;2023-06-24T07:07:10;101806.53;;;36.95
67509;BMP280;54354;44.724;11.284;2023-06-24T07:09:35;101805.56;;;37.19
67509;BMP280;54354;44.724;11.284;2023-06-24T07:12:01;101807.03;;;37.40
67509;BMP280;54354;44.724;11.284;2023-06-24T07:14:27;101810.81;;;37.54
67509;BMP280;54354;44.724;11.284;2023-06-24T07:16:52;101802.66;;;37.75
67509;BMP280;54354;44.724;11.284;2023-06-24T07:19:18;101811.91;;;37.99
67509;BMP280;54354;44.724;11.284;2023-06-24T07:21:44;101817.28;;;38.16
67509;BMP280;54354;44.724;11.284;2023-06-24T07:24:09;101812.97;;;38.34
67509;BMP280;54354;44.724;11.284;2023-06-24T07:26:35;101811.63;;;38.45
67509;BMP280;54354;44.724;11.284;2023-06-24T07:29:01;101812.03;;;38.51
67509;BMP280;54354;44.724;11.284;2023-06-24T07:31:26;101819.56;;;38.60
67509;BMP280;54354;44.724;11.284;2023-06-24T07:33:52;101820.97;;;38.71
67509;BMP280;54354;44.724;11.284;2023-06-24T07:36:17;101816.34;;;38.85
67509;BMP280;54354;44.724;11.284;2023-06-24T07:38:44;101817.44;;;39.01
67509;BMP280;54354;44.724;11.284;2023-06-24T07:41:09;101818.91;;;39.14
67509;BMP280;54354;44.724;11.284;2023-06-24T07:43:35;101815.47;;;39.25
67509;BMP280;54354;44.724;11.284;2023-06-24T07:46:00;101828.91;;;39.40
67509;BMP280;54354;44.724;11.284;2023-06-24T07:48:26;101824.84;;;39.53
67509;BMP280;54354;44.724;11.284;2023-06-24T07:50:52;101829.34;;;39.58
67509;BMP280;54354;44.724;11.284;2023-06-24T07:53:17;101821.41;;;39.64
67509;BMP280;54354;44.724;11.284;2023-06-24T07:55:43;101823.47;;;39.75
67509;BMP280;54354;44.724;11.284;2023-06-24T07:58:08;101829.50;;;39.83
67509;BMP280;54354;44.724;11.284;2023-06-24T08:00:34;101827.84;;;39.90
67509;BMP280;54354;44.724;11.284;2023-06-24T08:02:59;101824.34;;;40.01
67509;BMP280;54354;44.724;11.284;2023-06-24T08:05:25;101831.25;;;40.00
67509;BMP280;54354;44.724;11.284;2023-06-24T08:07:51;101829.28;;;39.91
67509;BMP280;54354;44.724;11.284;2023-06-24T08:10:17;101830.47;;;39.76
67509;BMP280;54354;44.724;11.284;2023-06-24T08:12:43;101829.72;;;39.64
67509;BMP280;54354;44.724;11.284;2023-06-24T08:15:09;101828.47;;;39.56
67509;BMP280;54354;44.724;11.284;2023-06-24T08:17:35;101824.25;;;39.66
67509;BMP280;54354;44.724;11.284;2023-06-24T08:20:02;101823.47;;;39.75
67509;BMP280;54354;44.724;11.284;2023-06-24T08:22:28;101828.16;;;39.73
67509;BMP280;54354;44.724;11.284;2023-06-24T08:24:54;101822.03;;;39.74
67509;BMP280;54354;44.724;11.284;2023-06-24T08:27:19;101830.25;;;39.72
67509;BMP280;54354;44.724;11.284;2023-06-24T08:29:45;101831.03;;;39.75
67509;BMP280;54354;44.724;11.284;2023-06-24T08:32:10;101828.41;;;39.77
67509;BMP280;54354;44.724;11.284;2023-06-24T08:34:36;101829.28;;;39.91
67509;BMP280;54354;44.724;11.284;2023-06-24T08:37:01;101825.47;;;39.96
67509;BMP280;54354;44.724;11.284;2023-06-24T08:39:27;101834.47;;;39.85
67509;BMP280;54354;44.724;11.284;2023-06-24T08:41:53;101837.94;;;39.74
67509;BMP280;54354;44.724;11.284;2023-06-24T08:44:19;101827.91;;;39.69
67509;BMP280;54354;44.724;11.284;2023-06-24T08:46:44;101842.34;;;39.56
67509;BMP280;54354;44.724;11.284;2023-06-24T08:51:51;101816.69;;;38.80
67509;BMP280;54354;44.724;11.284;2023-06-24T08:54:19;101829.44;;;38.32
67509;BMP280;54354;44.724;11.284;2023-06-24T08:56:45;101835.25;;;37.86
67509;BMP280;54354;44.724;11.284;2023-06-24T08:59:11;101827.00;;;37.48
67509;BMP280;54354;44.724;11.284;2023-06-24T09:01:36;101827.25;;;37.13
67509;BMP280;54354;44.724;11.284;2023-06-24T09:04:02;101826.13;;;36.80
67509;BMP280;54354;44.724;11.284;2023-06-24T09:06:30;101827.34;;;36.60
67509;BMP280;54354;44.724;11.284;2023-06-24T09:08:55;101819.56;;;36.39
67509;BMP280;54354;44.724;11.284;2023-06-24T09:11:26;101819.00;;;36.13
67509;BMP280;54354;44.724;11.284;2023-06-24T09:13:59;101814.66;;;35.93
67509;BMP280;54354;44.724;11.284;2023-06-24T09:16:26;101813.13;;;35.83
67509;BMP280;54354;44.724;11.284;2023-06-24T09:18:53;101817.16;;;35.64
67509;BMP280;54354;44.724;11.284;2023-06-24T09:21:25;101827.38;;;35.54
67509;BMP280;54354;44.724;11.284;2023-06-24T09:23:55;101810.47;;;35.58
67509;BMP280;54354;44.724;11.284;2023-06-24T09:26:25;101820.88;;;35.59
67509;BMP280;54354;44.724;11.284;2023-06-24T09:28:51;101810.88;;;36.15
67509;BMP280;54354;44.724;11.284;2023-06-24T09:31:17;101819.19;;;35.81
67509;BMP280;54354;44.724;11.284;2023-06-24T09:33:43;101815.97;;;35.75
67509;BMP280;54354;44.724;11.284;2023-06-24T09:36:13;101815.88;;;35.65
67509;BMP280;54354;44.724;11.284;2023-06-24T09:38:43;101829.09;;;35.67
67509;BMP280;54354;44.724;11.284;2023-06-24T09:41:10;101812.31;;;35.55
67509;BMP280;54354;44.724;11.284;2023-06-24T09:43:37;101812.69;;;35.34
67509;BMP280;54354;44.724;11.284;2023-06-24T09:46:05;101826.63;;;35.19
67509;BMP280;54354;44.724;11.284;2023-06-24T09:48:30;101819.31;;;35.14
67509;BMP280;54354;44.724;11.284;2023-06-24T09:51:01;101803.34;;;35.13
67509;BMP280;54354;44.724;11.284;2023-06-24T09:53:31;101799.28;;;35.14
67509;BMP280;54354;44.724;11.284;2023-06-24T09:55:57;101794.88;;;35.70
67509;BMP280;54354;44.724;11.284;2023-06-24T09:58:23;101799.81;;;35.37
67509;BMP280;54354;44.724;11.284;2023-06-24T10:00:49;101795.09;;;35.30
67509;BMP280;54354;44.724;11.284;2023-06-24T10:03:16;101799.16;;;35.29
67509;BMP280;54354;44.724;11.284;2023-06-24T10:05:42;101797.13;;;35.29
67509;BMP280;54354;44.724;11.284;2023-06-24T10:08:09;101800.13;;;35.24
67509;BMP280;54354;44.724;11.284;2023-06-24T10:10:35;101796.47;;;35.21
67509;BMP280;54354;44.724;11.284;2023-06-24T10:13:01;101781.56;;;35.07
67509;BMP280;54354;44.724;11.284;2023-06-24T10:15:26;101787.72;;;34.90
67509;BMP280;54354;44.724;11.284;2023-06-24T10:17:52;101787.97;;;34.85
67509;BMP280;54354;44.724;11.284;2023-06-24T10:20:24;101782.31;;;34.75
67509;BMP280;54354;44.724;11.284;2023-06-24T10:22:51;101778.28;;;34.76
67509;BMP280;54354;44.724;11.284;2023-06-24T10:25:16;101778.88;;;34.75
67509;BMP280;54354;44.724;11.284;2023-06-24T10:27:43;101779.09;;;34.69
67509;BMP280;54354;44.724;11.284;2023-06-24T10:30:17;101770.34;;;34.55
67509;BMP280;54354;44.724;11.284;2023-06-24T10:32:43;101782.59;;;34.62
67509;BMP280;54354;44.724;11.284;2023-06-24T10:35:26;101771.34;;;34.67
67509;BMP280;54354;44.724;11.284;2023-06-24T10:37:57;101767.34;;;34.68
67509;BMP280;54354;44.724;11.284;2023-06-24T10:40:39;101767.63;;;34.80
67509;BMP280;54354;44.724;11.284;2023-06-24T10:45:49;101754.53;;;34.88
67509;BMP280;54354;44.724;11.284;2023-06-24T10:48:17;101745.69;;;34.90
67509;BMP280;54354;44.724;11.284;2023-06-24T10:50:45;101754.31;;;34.94
67509;BMP280;54354;44.724;11.284;2023-06-24T10:53:12;101747.00;;;34.89
67509;BMP280;54354;44.724;11.284;2023-06-24T10:55:38;101746.44;;;34.90
67509;BMP280;54354;44.724;11.284;2023-06-24T10:58:11;101740.19;;;34.90
67509;BMP280;54354;44.724;11.284;2023-06-24T11:00:42;101743.69;;;34.90
67509;BMP280;54354;44.724;11.284;2023-06-24T11:03:13;101735.97;;;34.89
67509;BMP280;54354;44.724;11.284;2023-06-24T11:05:40;101742.34;;;34.99
67509;BMP280;54354;44.724;11.284;2023-06-24T11:08:07;101735.28;;;35.05
67509;BMP280;54354;44.724;11.284;2023-06-24T11:10:32;101732.13;;;35.09
67509;BMP280;54354;44.724;11.284;2023-06-24T11:13:05;101725.59;;;35.04
67509;BMP280;54354;44.724;11.284;2023-06-24T11:15:32;101729.78;;;35.05
67509;BMP280;54354;44.724;11.284;2023-06-24T11:17:57;101729.31;;;34.99
67509;BMP280;54354;44.724;11.284;2023-06-24T11:20:23;101724.66;;;34.85
67509;BMP280;54354;44.724;11.284;2023-06-24T11:22:49;101727.28;;;34.75
67509;BMP280;54354;44.724;11.284;2023-06-24T11:25:20;101718.88;;;34.73
67509;BMP280;54354;44.724;11.284;2023-06-24T11:27:47;101725.94;;;34.84
67509;BMP280;54354;44.724;11.284;2023-06-24T11:30:13;101717.69;;;34.84
67509;BMP280;54354;44.724;11.284;2023-06-24T11:32:40;101715.66;;;34.84
67509;BMP280;54354;44.724;11.284;2023-06-24T11:35:08;101709.47;;;34.76
67509;BMP280;54354;44.724;11.284;2023-06-24T11:37:34;101718.47;;;34.77
67509;BMP280;54354;44.724;11.284;2023-06-24T11:40:05;101704.97;;;34.71
67509;BMP280;54354;44.724;11.284;2023-06-24T11:42:32;101702.53;;;34.75
67509;BMP280;54354;44.724;11.284;2023-06-24T11:45:06;101702.53;;;34.75
67509;BMP280;54354;44.724;11.284;2023-06-24T11:47:32;101697.53;;;34.81
67509;BMP280;54354;44.724;11.284;2023-06-24T11:50:02;101693.06;;;34.86
67509;BMP280;54354;44.724;11.284;2023-06-24T11:52:49;101681.53;;;34.87
67509;BMP280;54354;44.724;11.284;2023-06-24T12:00:19;101693.31;;;34.80
67509;BMP280;54354;44.724;11.284;2023-06-24T12:02:45;101690.56;;;34.80
67509;BMP280;54354;44.724;11.284;2023-06-24T12:05:10;101687.06;;;34.80
67509;BMP280;54354;44.724;11.284;2023-06-24T12:07:36;101690.56;;;34.80
67509;BMP280;54354;44.724;11.284;2023-06-24T12:10:01;101681.91;;;34.84
67509;BMP280;54354;44.724;11.284;2023-06-24T12:12:27;101683.75;;;34.81
67509;BMP280;54354;44.724;11.284;2023-06-24T12:14:53;101675.41;;;34.71
67509;BMP280;54354;44.724;11.284;2023-06-24T12:17:19;101683.22;;;34.58
67509;BMP280;54354;44.724;11.284;2023-06-24T12:19:44;101675.59;;;34.49
67509;BMP280;54354;44.724;11.284;2023-06-24T12:22:10;101675.63;;;34.41
67509;BMP280;54354;44.724;11.284;2023-06-24T12:24:36;101671.66;;;34.34
67509;BMP280;54354;44.724;11.284;2023-06-24T12:27:01;101667.63;;;34.35
67509;BMP280;54354;44.724;11.284;2023-06-24T12:29:27;101670.13;;;34.41
67509;BMP280;54354;44.724;11.284;2023-06-24T12:31:52;101678.34;;;34.49
67509;BMP280;54354;44.724;11.284;2023-06-24T12:34:18;101677.53;;;34.56
67509;BMP280;54354;44.724;11.284;2023-06-24T12:36:46;101678.13;;;34.54
67509;BMP280;54354;44.724;11.284;2023-06-24T12:39:11;101679.41;;;34.53
67509;BMP280;54354;44.724;11.284;2023-06-24T12:41:37;101674.06;;;34.55
67509;BMP280;54354;44.724;11.284;2023-06-24T12:44:02;101668.34;;;34.61
67509;BMP280;54354;44.724;11.284;2023-06-24T12:46:28;101675.69;;;34.58
67509;BMP280;54354;44.724;11.284;2023-06-24T12:48:54;101669.34;;;34.48
67509;BMP280;54354;44.724;11.284;2023-06-24T12:51:19;101672.88;;;34.41
67509;BMP280;54354;44.724;11.284;2023-06-24T12:53:45;101676.91;;;34.40
67509;BMP280;54354;44.724;11.284;2023-06-24T12:56:11;101670.88;;;34.42
67509;BMP280;54354;44.724;11.284;2023-06-24T12:58:37;101665.16;;;34.47
67509;BMP280;54354;44.724;11.284;2023-06-24T13:01:02;101660.72;;;34.52
67509;BMP280;54354;44.724;11.284;2023-06-24T13:03:28;101651.72;;;34.51
67509;BMP280;54354;44.724;11.284;2023-06-24T13:05:53;101661.19;;;34.58
67509;BMP280;54354;44.724;11.284;2023-06-24T13:08:18;101664.47;;;34.64
67509;BMP280;54354;44.724;11.284;2023-06-24T13:10:44;101659.44;;;34.70
67509;BMP280;54354;44.724;11.284;2023-06-24T13:13:10;101653.41;;;34.71
67509;BMP280;54354;44.724;11.284;2023-06-24T13:15:35;101653.78;;;34.68
67509;BMP280;54354;44.724;11.284;2023-06-24T13:18:01;101649.81;;;34.61
67509;BMP280;54354;44.724;11.284;2023-06-24T13:20:27;101645.88;;;34.47
67509;BMP280;54354;44.724;11.284;2023-06-24T13:22:52;101650.94;;;34.33
67509;BMP280;54354;44.724;11.284;2023-06-24T13:25:18;101649.13;;;34.28
67509;BMP280;54354;44.724;11.284;2023-06-24T13:27:44;101650.63;;;34.29
67509;BMP280;54354;44.724;11.284;2023-06-24T13:30:10;101639.72;;;34.39
67509;BMP280;54354;44.724;11.284;2023-06-24T13:32:36;101639.09;;;34.48
67509;BMP280;54354;44.724;11.284;2023-06-24T13:35:02;101639.19;;;34.58
67509;BMP280;54354;44.724;11.284;2023-06-24T13:37:27;101647.00;;;34.69
67509;BMP280;54354;44.724;11.284;2023-06-24T13:39:53;101644.03;;;34.75
67509;BMP280;54354;44.724;11.284;2023-06-24T13:42:18;101647.16;;;34.71
67509;BMP280;54354;44.724;11.284;2023-06-24T13:44:44;101638.75;;;34.69
67509;BMP280;54354;44.724;11.284;2023-06-24T13:47:09;101639.47;;;34.69
67509;BMP280;54354;44.724;11.284;2023-06-24T13:49:35;101632.88;;;34.65
67509;BMP280;54354;44.724;11.284;2023-06-24T13:52:00;101638.28;;;34.55
67509;BMP280;54354;44.724;11.284;2023-06-24T13:54:26;101636.19;;;34.46
67509;BMP280;54354;44.724;11.284;2023-06-24T13:56:56;101634.38;;;34.41
67509;BMP280;54354;44.724;11.284;2023-06-24T13:59:21;101623.97;;;34.40
67509;BMP280;54354;44.724;11.284;2023-06-24T14:01:47;101628.13;;;34.41
67509;BMP280;54354;44.724;11.284;2023-06-24T14:04:12;101627.59;;;34.42